Time;durP1;ratioP1;P1;durP2;ratioP2;P2;SDS_P1;SDS_P2;PMS_P1;PMS_P2;Temp;Humidity;BMP_temperature;BMP_pressure;BME280_temperature;BME280_humidity;BME280_pressure;Samples;Min_cycle;Max_cycle;Signal;HPM_P1;HPM_P2
2024/01/26 00:01:15;;;;;;;;;;;6.40;87.70;;;;;;5051614;28;19951;-72
2024/01/26 00:03:49;;;;;;;;;;;6.40;87.70;;;;;;5052124;28;19933;-73
2024/01/26 00:06:22;;;;;;;;;;;6.40;87.80;;;;;;5053976;28;19925;-75
2024/01/26 00:08:57;;;;;;;;;;;6.40;87.90;;;;;;5058614;28;19935;-61
2024/01/26 00:11:30;;;;;;;;;;;6.40;88.00;;;;;;5036903;28;19930;-61
2024/01/26 00:14:04;;;;;;;;;;;6.40;87.90;;;;;;5053805;28;20397;-61
2024/01/26 00:16:38;;;;;;;;;;;6.40;87.80;;;;;;5059618;28;19929;-60
2024/01/26 00:19:11;;;;;;;;;;;6.40;87.70;;;;;;5054473;28;19940;-62
2024/01/26 00:21:44;;;;;;;;;;;6.40;87.80;;;;;;5058292;28;19925;-62
2024/01/26 00:24:19;;;;;;;;;;;6.40;87.80;;;;;;5056034;28;20007;-61
2024/01/26 00:26:52;;;;;;;;;;;6.50;87.80;;;;;;5054087;28;19931;-61
2024/01/26 00:29:25;;;;;;;;;;;6.40;87.70;;;;;;5055477;28;19935;-62
2024/01/26 00:31:58;;;;;;;;;;;6.50;87.80;;;;;;5057870;28;19939;-61
2024/01/26 00:34:31;;;;;;;;;;;6.50;87.90;;;;;;5053392;28;19951;-62
2024/01/26 00:37:04;;;;;;;;;;;6.50;87.90;;;;;;5051504;28;19956;-61
2024/01/26 00:39:39;;;;;;;;;;;6.50;88.10;;;;;;5055977;28;19981;-60
2024/01/26 00:42:06;;;;;;;;;;;6.50;88.10;;;;;;5053774;28;19925;-62
2024/01/26 00:44:38;;;;;;;;;;;6.50;88.10;;;;;;5056098;28;20386;-60
2024/01/26 00:47:11;;;;;;;;;;;6.50;88.10;;;;;;5055231;28;20023;-61
2024/01/26 00:49:44;;;;;;;;;;;6.50;88.20;;;;;;5052935;28;19931;-61
2024/01/26 00:52:18;;;;;;;;;;;6.50;88.40;;;;;;5055878;28;19929;-61
2024/01/26 00:54:46;;;;;;;;;;;6.40;88.60;;;;;;5054810;28;19948;-62
2024/01/26 00:57:18;;;;;;;;;;;6.40;88.70;;;;;;5054923;28;20011;-61
2024/01/26 00:59:51;;;;;;;;;;;6.40;88.90;;;;;;5066237;28;20352;-61
2024/01/26 01:02:24;;;;;;;;;;;6.40;88.90;;;;;;5056613;28;19929;-61
2024/01/26 01:04:51;;;;;;;;;;;6.40;88.80;;;;;;5053307;28;19932;-61
2024/01/26 01:07:24;;;;;;;;;;;6.50;88.80;;;;;;5055212;28;20429;-60
2024/01/26 01:09:59;;;;;;;;;;;6.50;88.80;;;;;;5060137;28;20418;-61
2024/01/26 01:12:33;;;;;;;;;;;6.40;88.90;;;;;;5059022;28;19928;-62
2024/01/26 01:15:11;;;;;;;;;;;6.50;88.90;;;;;;5058928;28;19924;-64
2024/01/26 01:17:45;;;;;;;;;;;6.50;88.80;;;;;;5057657;28;20007;-60
2024/01/26 01:20:18;;;;;;;;;;;6.50;88.70;;;;;;5060155;28;19924;-61
2024/01/26 01:22:51;;;;;;;;;;;6.50;88.80;;;;;;5060884;28;20423;-62
2024/01/26 01:25:26;;;;;;;;;;;6.50;88.80;;;;;;5059184;28;19925;-63
2024/01/26 01:28:00;;;;;;;;;;;6.50;88.90;;;;;;5059532;28;19974;-63
2024/01/26 01:30:32;;;;;;;;;;;6.50;88.90;;;;;;5060835;28;19924;-62
2024/01/26 01:33:05;;;;;;;;;;;6.60;88.80;;;;;;5066219;28;19925;-63
2024/01/26 01:35:38;;;;;;;;;;;6.60;88.60;;;;;;5061640;28;19924;-63
2024/01/26 01:38:06;;;;;;;;;;;6.60;88.60;;;;;;5066002;28;19932;-63
2024/01/26 01:40:40;;;;;;;;;;;6.60;88.70;;;;;;5066608;28;19931;-62
2024/01/26 01:43:15;;;;;;;;;;;6.60;88.80;;;;;;5067889;28;19928;-66
2024/01/26 01:45:48;;;;;;;;;;;6.60;88.60;;;;;;5057322;28;20027;-62
2024/01/26 01:48:23;;;;;;;;;;;6.60;88.70;;;;;;5059305;28;20962;-63
2024/01/26 01:50:55;;;;;;;;;;;6.60;88.80;;;;;;5066011;28;19928;-63
2024/01/26 01:53:29;;;;;;;;;;;6.60;88.70;;;;;;5063062;28;19927;-62
2024/01/26 01:56:04;;;;;;;;;;;6.60;88.80;;;;;;5059262;28;19978;-61
2024/01/26 01:58:38;;;;;;;;;;;6.60;88.80;;;;;;5059189;28;19929;-63
2024/01/26 02:01:14;;;;;;;;;;;6.60;88.80;;;;;;5056850;28;19929;-64
2024/01/26 02:03:47;;;;;;;;;;;6.60;89.00;;;;;;5056768;28;19931;-63
2024/01/26 02:06:20;;;;;;;;;;;6.60;89.20;;;;;;5058135;28;20315;-62
2024/01/26 02:08:53;;;;;;;;;;;6.60;89.00;;;;;;5058488;28;19986;-62
2024/01/26 02:11:28;;;;;;;;;;;6.60;89.20;;;;;;5049705;28;20177;-63
2024/01/26 02:14:01;;;;;;;;;;;6.50;89.20;;;;;;5055320;28;19987;-64
2024/01/26 02:16:35;;;;;;;;;;;6.60;89.20;;;;;;5058587;28;19931;-62
2024/01/26 02:19:11;;;;;;;;;;;6.60;89.10;;;;;;5056267;28;19952;-63
2024/01/26 02:21:44;;;;;;;;;;;6.60;89.10;;;;;;5059402;28;19931;-64
2024/01/26 02:24:19;;;;;;;;;;;6.60;89.20;;;;;;5057367;28;19935;-65
2024/01/26 02:26:53;;;;;;;;;;;6.60;89.20;;;;;;5058530;28;19935;-62
2024/01/26 02:29:25;;;;;;;;;;;6.60;89.20;;;;;;5056676;28;19925;-62
2024/01/26 02:31:58;;;;;;;;;;;6.60;89.30;;;;;;5053924;28;19932;-62
2024/01/26 02:34:27;;;;;;;;;;;6.60;89.20;;;;;;5054059;28;19931;-61
2024/01/26 02:37:01;;;;;;;;;;;6.60;89.30;;;;;;5053052;28;19935;-61
2024/01/26 02:39:35;;;;;;;;;;;6.60;89.10;;;;;;5056248;28;20458;-62
2024/01/26 02:42:02;;;;;;;;;;;6.70;89.30;;;;;;5058757;28;19924;-65
2024/01/26 02:44:34;;;;;;;;;;;6.60;89.30;;;;;;5057818;28;19932;-62
2024/01/26 02:47:07;;;;;;;;;;;6.60;89.30;;;;;;5058174;28;19928;-62
2024/01/26 02:49:41;;;;;;;;;;;6.60;89.30;;;;;;5057590;28;19955;-62
2024/01/26 02:52:14;;;;;;;;;;;6.60;89.40;;;;;;5056915;28;19939;-61
2024/01/26 02:54:50;;;;;;;;;;;6.60;89.20;;;;;;5053037;28;20025;-62
2024/01/26 02:57:23;;;;;;;;;;;6.60;89.30;;;;;;5056643;28;19944;-61
2024/01/26 02:59:56;;;;;;;;;;;6.60;89.50;;;;;;5053275;28;19936;-59
2024/01/26 03:02:23;;;;;;;;;;;6.60;89.50;;;;;;5055103;28;19929;-61
2024/01/26 03:04:56;;;;;;;;;;;6.60;89.50;;;;;;5056265;28;19933;-62
2024/01/26 03:07:29;;;;;;;;;;;6.50;89.70;;;;;;5057018;28;19929;-62
2024/01/26 03:10:11;;;;;;;;;;;6.60;89.70;;;;;;5058247;28;20364;-61
2024/01/26 03:12:44;;;;;;;;;;;6.60;89.50;;;;;;5056163;28;20041;-61
2024/01/26 03:15:18;;;;;;;;;;;6.60;89.50;;;;;;5056537;28;19932;-61
2024/01/26 03:17:50;;;;;;;;;;;6.70;89.50;;;;;;5052508;28;19928;-61
2024/01/26 03:20:17;;;;;;;;;;;6.60;89.50;;;;;;5056254;28;19993;-61
2024/01/26 03:22:50;;;;;;;;;;;6.60;89.60;;;;;;5058424;28;20315;-61
2024/01/26 03:25:25;;;;;;;;;;;6.60;89.60;;;;;;5056510;28;19933;-66
2024/01/26 03:27:59;;;;;;;;;;;6.60;89.60;;;;;;5057561;28;19940;-66
2024/01/26 03:30:33;;;;;;;;;;;6.60;89.70;;;;;;5056739;28;19928;-62
2024/01/26 03:32:59;;;;;;;;;;;6.60;89.70;;;;;;5052545;28;19929;-61
2024/01/26 03:35:32;;;;;;;;;;;6.60;89.70;;;;;;5043980;28;19928;-62
2024/01/26 03:38:05;;;;;;;;;;;6.60;89.80;;;;;;5058346;28;19929;-62
2024/01/26 03:40:40;;;;;;;;;;;6.70;89.70;;;;;;5059285;28;19943;-61
2024/01/26 03:43:13;;;;;;;;;;;6.70;89.80;;;;;;5057301;28;19982;-61
2024/01/26 03:45:46;;;;;;;;;;;6.60;89.80;;;;;;5057225;28;19925;-62
2024/01/26 03:48:19;;;;;;;;;;;6.70;89.60;;;;;;5057017;28;19929;-63
2024/01/26 03:50:53;;;;;;;;;;;6.70;89.80;;;;;;5055681;28;19925;-60
2024/01/26 03:53:25;;;;;;;;;;;6.70;89.90;;;;;;5055847;28;20389;-62
2024/01/26 03:56:00;;;;;;;;;;;6.60;89.90;;;;;;5056945;28;20521;-62
2024/01/26 03:58:33;;;;;;;;;;;6.70;89.90;;;;;;5055317;28;20379;-61
2024/01/26 04:01:06;;;;;;;;;;;6.70;90.00;;;;;;5050109;28;20371;-62
2024/01/26 04:03:33;;;;;;;;;;;6.70;90.00;;;;;;5054079;28;19929;-62
2024/01/26 04:06:08;;;;;;;;;;;6.70;90.10;;;;;;5056241;28;19940;-63
2024/01/26 04:08:40;;;;;;;;;;;6.60;90.40;;;;;;5053656;28;20007;-61
2024/01/26 04:11:15;;;;;;;;;;;6.60;90.30;;;;;;5053422;28;19931;-64
2024/01/26 04:13:49;;;;;;;;;;;6.70;90.30;;;;;;5058032;28;19928;-62
2024/01/26 04:16:21;;;;;;;;;;;6.70;90.30;;;;;;5053423;28;19933;-62
2024/01/26 04:18:55;;;;;;;;;;;6.70;90.10;;;;;;5054758;28;19929;-62
2024/01/26 04:21:28;;;;;;;;;;;6.70;90.30;;;;;;5043344;28;19928;-62
2024/01/26 04:24:00;;;;;;;;;;;6.80;90.30;;;;;;5047470;28;19947;-62
2024/01/26 04:26:35;;;;;;;;;;;6.80;90.20;;;;;;5057696;28;20343;-62
2024/01/26 04:29:08;;;;;;;;;;;6.80;90.30;;;;;;5047683;28;19964;-61
2024/01/26 04:31:42;;;;;;;;;;;6.80;90.20;;;;;;5048401;28;19928;-61
2024/01/26 04:34:16;;;;;;;;;;;6.80;90.40;;;;;;5048179;28;19956;-61
2024/01/26 04:36:49;;;;;;;;;;;6.80;90.30;;;;;;5048051;28;20281;-61
2024/01/26 04:39:22;;;;;;;;;;;6.80;90.30;;;;;;5051853;28;20282;-62
2024/01/26 04:41:56;;;;;;;;;;;6.80;90.70;;;;;;5050714;28;20326;-62
2024/01/26 04:44:29;;;;;;;;;;;6.80;90.60;;;;;;5060093;28;19928;-62
2024/01/26 04:47:03;;;;;;;;;;;6.90;90.50;;;;;;5058023;28;20374;-63
2024/01/26 04:49:35;;;;;;;;;;;6.80;90.40;;;;;;5059247;28;20380;-61
2024/01/26 04:52:09;;;;;;;;;;;6.80;90.50;;;;;;5060987;28;20062;-60
2024/01/26 04:54:42;;;;;;;;;;;6.80;90.70;;;;;;5055221;28;20007;-61
2024/01/26 04:57:16;;;;;;;;;;;6.80;90.80;;;;;;5060109;28;19982;-61
2024/01/26 04:59:50;;;;;;;;;;;6.90;90.70;;;;;;5061472;28;19924;-61
2024/01/26 05:02:23;;;;;;;;;;;6.90;90.60;;;;;;5058006;28;19948;-60
2024/01/26 05:04:56;;;;;;;;;;;6.90;90.80;;;;;;5058933;28;19939;-62
2024/01/26 05:07:29;;;;;;;;;;;6.90;90.80;;;;;;5060169;28;19963;-60
2024/01/26 05:10:02;;;;;;;;;;;6.90;90.80;;;;;;5059741;28;19938;-65
2024/01/26 05:12:36;;;;;;;;;;;7.00;90.90;;;;;;5054061;28;20019;-61
2024/01/26 05:15:11;;;;;;;;;;;7.00;90.90;;;;;;5059206;28;19943;-61
2024/01/26 05:17:45;;;;;;;;;;;7.10;91.00;;;;;;5061400;28;19924;-61
2024/01/26 05:20:18;;;;;;;;;;;7.10;91.20;;;;;;5057107;28;20448;-60
2024/01/26 05:22:52;;;;;;;;;;;7.10;91.10;;;;;;5060518;28;19932;-60
2024/01/26 05:25:25;;;;;;;;;;;7.10;91.10;;;;;;5059064;28;19928;-61
2024/01/26 05:27:59;;;;;;;;;;;7.10;91.30;;;;;;5057592;28;19929;-60
2024/01/26 05:30:33;;;;;;;;;;;7.20;91.40;;;;;;5059414;28;19933;-61
2024/01/26 05:33:05;;;;;;;;;;;7.20;91.60;;;;;;5058619;28;19947;-62
2024/01/26 05:35:39;;;;;;;;;;;7.20;91.50;;;;;;5058658;28;19924;-61
2024/01/26 05:38:12;;;;;;;;;;;7.30;91.50;;;;;;5059200;28;19932;-61
2024/01/26 05:40:45;;;;;;;;;;;7.30;91.50;;;;;;5058343;28;19924;-61
2024/01/26 05:43:20;;;;;;;;;;;7.40;91.70;;;;;;5057326;28;19929;-60
2024/01/26 05:45:54;;;;;;;;;;;7.40;91.60;;;;;;5057649;28;19946;-60
2024/01/26 05:48:20;;;;;;;;;;;7.40;91.80;;;;;;5058857;28;19932;-60
2024/01/26 05:50:54;;;;;;;;;;;7.40;91.80;;;;;;5058225;28;20402;-61
2024/01/26 05:53:27;;;;;;;;;;;7.40;91.90;;;;;;5056735;28;19932;-60
2024/01/26 05:56:01;;;;;;;;;;;7.50;91.90;;;;;;5056964;28;20351;-59
2024/01/26 05:58:35;;;;;;;;;;;7.50;91.80;;;;;;5058560;28;19936;-67
2024/01/26 06:01:09;;;;;;;;;;;7.50;91.70;;;;;;5057646;28;19932;-66
2024/01/26 06:03:42;;;;;;;;;;;7.50;91.70;;;;;;5057026;28;19932;-65
2024/01/26 06:06:15;;;;;;;;;;;7.50;91.90;;;;;;5059067;28;20380;-65
2024/01/26 06:08:49;;;;;;;;;;;7.50;91.80;;;;;;5059939;28;19963;-66
2024/01/26 06:11:22;;;;;;;;;;;7.60;92.00;;;;;;5058785;28;20401;-65
2024/01/26 06:13:56;;;;;;;;;;;7.60;91.90;;;;;;5055126;28;19935;-64
2024/01/26 06:16:30;;;;;;;;;;;7.70;92.30;;;;;;5057827;28;19928;-64
2024/01/26 06:19:03;;;;;;;;;;;7.60;92.30;;;;;;5058828;28;19935;-66
2024/01/26 06:21:36;;;;;;;;;;;7.70;92.30;;;;;;5056319;28;19947;-66
2024/01/26 06:24:09;;;;;;;;;;;7.70;92.50;;;;;;5054924;28;19929;-65
2024/01/26 06:26:42;;;;;;;;;;;7.70;92.70;;;;;;5058696;28;19970;-65
2024/01/26 06:29:16;;;;;;;;;;;7.70;92.70;;;;;;5056571;28;19973;-65
2024/01/26 06:31:50;;;;;;;;;;;7.70;92.70;;;;;;5054209;28;19929;-65
2024/01/26 06:34:23;;;;;;;;;;;7.70;92.60;;;;;;5055690;28;19929;-64
2024/01/26 06:36:49;;;;;;;;;;;7.80;92.90;;;;;;5057017;28;20049;-66
2024/01/26 06:39:23;;;;;;;;;;;7.80;92.80;;;;;;5056734;28;19929;-65
2024/01/26 06:41:56;;;;;;;;;;;7.80;92.80;;;;;;5057863;28;19928;-65
2024/01/26 06:44:31;;;;;;;;;;;7.80;92.60;;;;;;5057567;28;19936;-67
2024/01/26 06:47:05;;;;;;;;;;;7.80;92.80;;;;;;5052845;28;19936;-66
2024/01/26 06:49:38;;;;;;;;;;;7.90;92.70;;;;;;5060806;28;20023;-64
2024/01/26 06:52:05;;;;;;;;;;;7.80;92.80;;;;;;5056728;28;20015;-67
2024/01/26 06:54:38;;;;;;;;;;;7.80;92.70;;;;;;5057167;28;19929;-66
2024/01/26 06:57:12;;;;;;;;;;;7.90;92.80;;;;;;5058164;28;19951;-64
2024/01/26 06:59:46;;;;;;;;;;;7.90;92.80;;;;;;5059377;28;20014;-66
2024/01/26 07:02:20;;;;;;;;;;;7.90;93.00;;;;;;5059401;28;20011;-64
2024/01/26 07:04:53;;;;;;;;;;;7.90;93.00;;;;;;5056814;28;19932;-64
2024/01/26 07:07:26;;;;;;;;;;;8.00;93.30;;;;;;5056693;28;19929;-65
2024/01/26 07:09:53;;;;;;;;;;;8.00;93.50;;;;;;5059521;28;19936;-62
2024/01/26 07:12:26;;;;;;;;;;;8.10;93.50;;;;;;5058168;28;20005;-62
2024/01/26 07:15:00;;;;;;;;;;;8.10;93.50;;;;;;5060044;28;19935;-61
2024/01/26 07:17:34;;;;;;;;;;;8.10;93.50;;;;;;5057862;28;19932;-62
2024/01/26 07:20:07;;;;;;;;;;;8.10;93.60;;;;;;5058188;28;20032;-63
2024/01/26 07:23:25;;;;;;;;;;;8.10;93.50;;;;;;5057268;28;20447;-61
2024/01/26 07:25:58;;;;;;;;;;;8.20;93.60;;;;;;5057752;28;19931;-63
2024/01/26 07:28:31;;;;;;;;;;;8.20;93.70;;;;;;5053354;28;20412;-62
2024/01/26 07:31:05;;;;;;;;;;;8.20;93.70;;;;;;5057570;28;20390;-61
2024/01/26 07:33:39;;;;;;;;;;;8.30;93.70;;;;;;5058126;28;20379;-62
2024/01/26 07:36:12;;;;;;;;;;;8.30;93.80;;;;;;5055877;28;20697;-63
2024/01/26 07:38:53;;;;;;;;;;;8.30;93.70;;;;;;5054890;28;20283;-62
2024/01/26 07:41:27;;;;;;;;;;;8.40;93.80;;;;;;5056394;28;19925;-63
2024/01/26 07:44:00;;;;;;;;;;;8.40;93.80;;;;;;5055535;28;20006;-63
2024/01/26 07:46:38;;;;;;;;;;;8.40;93.80;;;;;;5055652;28;19924;-62
2024/01/26 07:49:12;;;;;;;;;;;8.40;93.80;;;;;;5057217;28;19929;-62
2024/01/26 07:51:45;;;;;;;;;;;8.40;93.80;;;;;;5056886;28;19932;-62
2024/01/26 07:54:18;;;;;;;;;;;8.50;93.80;;;;;;5050560;28;19935;-61
2024/01/26 07:56:51;;;;;;;;;;;8.50;93.80;;;;;;5056495;28;19932;-63
2024/01/26 07:59:24;;;;;;;;;;;8.50;93.80;;;;;;5056614;28;20012;-62
2024/01/26 08:01:58;;;;;;;;;;;8.50;93.80;;;;;;5053490;28;19925;-63
2024/01/26 08:04:32;;;;;;;;;;;8.50;93.90;;;;;;5045846;28;20023;-63
2024/01/26 08:07:05;;;;;;;;;;;8.60;93.90;;;;;;5058056;28;19928;-62
2024/01/26 08:09:38;;;;;;;;;;;8.60;93.90;;;;;;5058941;28;19940;-63
2024/01/26 08:12:11;;;;;;;;;;;8.60;93.80;;;;;;5054953;28;20426;-61
2024/01/26 08:14:44;;;;;;;;;;;8.60;93.80;;;;;;5057397;28;20493;-62
2024/01/26 08:17:18;;;;;;;;;;;8.60;93.90;;;;;;5057190;28;19928;-62
2024/01/26 08:19:52;;;;;;;;;;;8.60;93.70;;;;;;5051883;28;20372;-76
2024/01/26 08:22:25;;;;;;;;;;;8.70;93.70;;;;;;5058190;28;20387;-79
2024/01/26 08:24:58;;;;;;;;;;;8.70;93.80;;;;;;5059666;28;19947;-78
2024/01/26 08:27:32;;;;;;;;;;;8.80;93.70;;;;;;5055749;28;20419;-79
2024/01/26 08:30:06;;;;;;;;;;;8.80;93.70;;;;;;5057787;28;19925;-79
2024/01/26 08:32:34;;;;;;;;;;;8.80;93.70;;;;;;5060733;28;20026;-80
2024/01/26 08:35:09;;;;;;;;;;;8.90;93.60;;;;;;5056892;28;19986;-77
2024/01/26 08:37:42;;;;;;;;;;;8.90;93.60;;;;;;5058017;28;19924;-78
2024/01/26 08:40:15;;;;;;;;;;;9.00;93.50;;;;;;5056005;28;20060;-78
2024/01/26 08:42:48;;;;;;;;;;;9.00;93.50;;;;;;5057503;28;20006;-79
2024/01/26 08:45:21;;;;;;;;;;;9.10;93.50;;;;;;5054069;28;19928;-78
2024/01/26 08:47:55;;;;;;;;;;;9.10;93.50;;;;;;5055265;28;19936;-77
2024/01/26 08:50:29;;;;;;;;;;;9.10;93.40;;;;;;5055520;28;19982;-79
2024/01/26 08:53:02;;;;;;;;;;;9.10;93.40;;;;;;5057872;28;19978;-76
2024/01/26 08:55:35;;;;;;;;;;;9.20;93.40;;;;;;5054280;28;20019;-80
2024/01/26 08:58:08;;;;;;;;;;;9.20;93.30;;;;;;5058093;28;19924;-76
2024/01/26 09:00:41;;;;;;;;;;;9.20;93.30;;;;;;5057934;28;20402;-77
2024/01/26 09:03:15;;;;;;;;;;;9.30;93.40;;;;;;5056864;28;20394;-76
2024/01/26 09:05:49;;;;;;;;;;;9.30;93.20;;;;;;5055809;28;19928;-76
2024/01/26 09:08:22;;;;;;;;;;;9.40;93.20;;;;;;5057188;28;20303;-71
2024/01/26 09:10:56;;;;;;;;;;;9.40;93.10;;;;;;5059210;28;19932;-78
2024/01/26 09:13:35;;;;;;;;;;;9.40;93.10;;;;;;5039574;28;19980;-75
2024/01/26 09:16:10;;;;;;;;;;;9.40;93.10;;;;;;5044072;28;19974;-77
2024/01/26 09:18:45;;;;;;;;;;;9.30;93.00;;;;;;5057097;28;20372;-78
2024/01/26 09:21:19;;;;;;;;;;;9.40;92.90;;;;;;5058004;28;19974;-75
2024/01/26 09:23:52;;;;;;;;;;;9.40;92.90;;;;;;5060725;28;19924;-76
2024/01/26 09:26:25;;;;;;;;;;;9.30;92.80;;;;;;5061049;28;20340;-76
2024/01/26 09:28:58;;;;;;;;;;;9.40;92.70;;;;;;5061172;28;19925;-66
2024/01/26 09:31:31;;;;;;;;;;;9.40;92.60;;;;;;5059484;28;19947;-62
2024/01/26 09:34:06;;;;;;;;;;;9.40;92.60;;;;;;5076651;22;19924;-61
2024/01/26 09:36:40;;;;;;;;;;;9.40;92.60;;;;;;5074655;28;20394;-62
2024/01/26 09:39:13;;;;;;;;;;;9.40;92.60;;;;;;5076163;28;19924;-61
2024/01/26 09:41:46;;;;;;;;;;;9.40;92.60;;;;;;5081340;28;19924;-62
2024/01/26 09:44:19;;;;;;;;;;;9.40;92.60;;;;;;5078722;28;19932;-62
2024/01/26 09:46:52;;;;;;;;;;;9.40;92.70;;;;;;5077944;28;19947;-62
2024/01/26 09:49:20;;;;;;;;;;;9.40;92.70;;;;;;5079466;28;20012;-63
2024/01/26 09:51:53;;;;;;;;;;;9.40;92.80;;;;;;5079505;28;19924;-62
2024/01/26 09:54:20;;;;;;;;;;;9.40;92.80;;;;;;5078987;28;19932;-63
2024/01/26 09:56:54;;;;;;;;;;;9.40;92.90;;;;;;5077704;28;19954;-61
2024/01/26 09:59:28;;;;;;;;;;;9.40;92.90;;;;;;5076651;28;20400;-61
2024/01/26 10:02:01;;;;;;;;;;;9.40;93.00;;;;;;5080561;28;19924;-62
2024/01/26 10:04:36;;;;;;;;;;;9.40;93.00;;;;;;5079342;28;19925;-62
2024/01/26 10:07:10;;;;;;;;;;;9.50;93.00;;;;;;5078445;28;19924;-62
2024/01/26 10:09:43;;;;;;;;;;;9.50;93.10;;;;;;5079428;28;19924;-62
2024/01/26 10:12:16;;;;;;;;;;;9.50;93.20;;;;;;5077803;28;20398;-63
2024/01/26 10:14:43;;;;;;;;;;;9.50;93.20;;;;;;5077274;28;19942;-62
2024/01/26 10:17:17;;;;;;;;;;;9.40;93.20;;;;;;5078197;28;19928;-62
2024/01/26 10:19:51;;;;;;;;;;;9.40;93.30;;;;;;5078984;28;19930;-62
2024/01/26 10:22:25;;;;;;;;;;;9.50;93.30;;;;;;5080170;28;19929;-62
2024/01/26 10:24:58;;;;;;;;;;;9.50;93.40;;;;;;5078345;28;19959;-63
2024/01/26 10:27:31;;;;;;;;;;;9.40;93.40;;;;;;5078380;28;19935;-62
2024/01/26 10:30:04;;;;;;;;;;;9.40;93.50;;;;;;5076111;28;19929;-61
2024/01/26 10:32:38;;;;;;;;;;;9.40;93.50;;;;;;5081064;28;20003;-62
2024/01/26 10:35:14;;;;;;;;;;;9.50;93.50;;;;;;5078736;28;20321;-63
2024/01/26 10:37:47;;;;;;;;;;;9.40;93.60;;;;;;5078427;28;19968;-61
2024/01/26 10:40:21;;;;;;;;;;;9.40;93.60;;;;;;5077899;28;20386;-63
2024/01/26 10:42:56;;;;;;;;;;;9.40;93.60;;;;;;5079177;28;20446;-63
2024/01/26 10:45:29;;;;;;;;;;;9.40;93.60;;;;;;5076270;28;19924;-63
2024/01/26 10:48:02;;;;;;;;;;;9.40;93.60;;;;;;5073501;28;19929;-62
2024/01/26 10:50:37;;;;;;;;;;;9.40;93.60;;;;;;5079737;28;19995;-63
2024/01/26 10:53:11;;;;;;;;;;;9.40;93.60;;;;;;5076948;28;19928;-63
2024/01/26 10:55:45;;;;;;;;;;;9.40;93.60;;;;;;5077057;28;20452;-63
2024/01/26 10:58:11;;;;;;;;;;;9.40;93.60;;;;;;5077964;28;19924;-64
2024/01/26 11:00:45;;;;;;;;;;;9.40;93.60;;;;;;5076858;28;19931;-63
2024/01/26 11:03:18;;;;;;;;;;;9.40;93.60;;;;;;5076828;28;20384;-63
2024/01/26 11:05:53;;;;;;;;;;;9.40;93.60;;;;;;5080013;28;19929;-65
2024/01/26 11:08:27;;;;;;;;;;;9.50;93.70;;;;;;5077744;28;20003;-65
2024/01/26 11:11:00;;;;;;;;;;;9.50;93.60;;;;;;5078235;28;19924;-64
2024/01/26 11:13:37;;;;;;;;;;;9.50;93.60;;;;;;5078939;28;19929;-64
2024/01/26 11:16:10;;;;;;;;;;;9.50;93.60;;;;;;5075290;28;19936;-63
2024/01/26 11:18:43;;;;;;;;;;;9.60;93.60;;;;;;5080695;28;19928;-65
2024/01/26 11:21:20;;;;;;;;;;;9.50;93.60;;;;;;5078606;28;19928;-62
2024/01/26 11:23:53;;;;;;;;;;;9.50;93.60;;;;;;5077997;28;19976;-62
2024/01/26 11:26:26;;;;;;;;;;;9.50;93.70;;;;;;5076629;28;19928;-64
2024/01/26 11:29:10;;;;;;;;;;;9.50;93.70;;;;;;5076955;28;20267;-64
2024/01/26 11:31:43;;;;;;;;;;;9.50;93.70;;;;;;5078154;28;19939;-63
2024/01/26 11:34:19;;;;;;;;;;;9.50;93.70;;;;;;5075163;28;19982;-64
2024/01/26 11:37:16;;;;;;;;;;;9.50;93.70;;;;;;5076450;28;20133;-62
2024/01/26 11:39:56;;;;;;;;;;;9.50;93.60;;;;;;5078638;28;19932;-62
2024/01/26 11:42:30;;;;;;;;;;;9.50;93.70;;;;;;5076632;28;19971;-62
2024/01/26 11:45:07;;;;;;;;;;;9.60;93.70;;;;;;5074930;28;19987;-63
2024/01/26 11:47:41;;;;;;;;;;;9.50;93.70;;;;;;5078794;28;19993;-61
2024/01/26 11:50:15;;;;;;;;;;;9.60;93.70;;;;;;5075654;28;19924;-63
2024/01/26 11:52:49;;;;;;;;;;;9.60;93.70;;;;;;5076768;28;19932;-64
2024/01/26 11:55:23;;;;;;;;;;;9.60;93.70;;;;;;5075522;28;19931;-62
2024/01/26 11:57:56;;;;;;;;;;;9.60;93.70;;;;;;5078457;28;20359;-62
2024/01/26 12:00:23;;;;;;;;;;;9.60;93.70;;;;;;5076307;28;20007;-63
2024/01/26 12:02:56;;;;;;;;;;;9.60;93.70;;;;;;5077858;28;19932;-63
2024/01/26 12:05:30;;;;;;;;;;;9.60;93.70;;;;;;5074614;28;19930;-62
2024/01/26 12:08:06;;;;;;;;;;;9.60;93.60;;;;;;5076343;28;19932;-62
2024/01/26 12:10:32;;;;;;;;;;;9.70;93.70;;;;;;5077996;28;19924;-63
2024/01/26 12:13:06;;;;;;;;;;;9.70;93.60;;;;;;5078548;28;19924;-64
2024/01/26 12:15:40;;;;;;;;;;;9.70;93.60;;;;;;5075868;28;19960;-63
2024/01/26 12:18:13;;;;;;;;;;;9.70;93.60;;;;;;5077299;28;19934;-63
2024/01/26 12:20:47;;;;;;;;;;;9.70;93.60;;;;;;5077424;28;19931;-63
2024/01/26 12:23:22;;;;;;;;;;;9.70;93.60;;;;;;5073196;28;19931;-62
2024/01/26 12:25:56;;;;;;;;;;;9.80;93.60;;;;;;5078065;28;19928;-64
2024/01/26 12:28:29;;;;;;;;;;;9.80;93.50;;;;;;5075786;28;19932;-62
2024/01/26 12:31:02;;;;;;;;;;;9.80;93.60;;;;;;5075557;28;19928;-64
2024/01/26 12:33:35;;;;;;;;;;;9.80;93.50;;;;;;5076505;28;19928;-64
2024/01/26 12:36:08;;;;;;;;;;;9.80;93.50;;;;;;5075840;28;19932;-65
2024/01/26 12:38:43;;;;;;;;;;;9.80;93.50;;;;;;5075739;28;19925;-64
2024/01/26 12:41:17;;;;;;;;;;;9.80;93.50;;;;;;5078196;28;19935;-65
2024/01/26 12:43:50;;;;;;;;;;;9.90;93.50;;;;;;5078851;28;19932;-64
2024/01/26 12:46:23;;;;;;;;;;;9.90;93.50;;;;;;5077572;28;19927;-64
2024/01/26 12:48:56;;;;;;;;;;;9.90;93.50;;;;;;5078531;28;20027;-65
2024/01/26 12:51:23;;;;;;;;;;;9.90;93.50;;;;;;5074132;28;19928;-63
2024/01/26 12:53:57;;;;;;;;;;;9.90;93.50;;;;;;5077066;28;19931;-63
2024/01/26 12:56:33;;;;;;;;;;;10.00;93.50;;;;;;5073398;28;20437;-63
2024/01/26 12:59:08;;;;;;;;;;;10.00;93.50;;;;;;5070762;28;19939;-62
2024/01/26 13:01:41;;;;;;;;;;;9.90;93.40;;;;;;5075812;28;19935;-61
2024/01/26 13:04:14;;;;;;;;;;;9.90;93.40;;;;;;5079936;28;19929;-63
2024/01/26 13:06:47;;;;;;;;;;;9.90;93.40;;;;;;5074610;28;19934;-61
2024/01/26 13:09:22;;;;;;;;;;;9.90;93.40;;;;;;5081121;28;19924;-62
2024/01/26 13:11:59;;;;;;;;;;;9.90;93.40;;;;;;5082274;28;19997;-61
2024/01/26 13:14:32;;;;;;;;;;;9.90;93.40;;;;;;5077145;28;19928;-61
2024/01/26 13:17:05;;;;;;;;;;;10.00;93.40;;;;;;5080570;28;20391;-62
2024/01/26 13:19:32;;;;;;;;;;;10.00;93.40;;;;;;5080128;28;19997;-61
2024/01/26 13:22:05;;;;;;;;;;;10.10;93.40;;;;;;5075571;28;19929;-61
2024/01/26 13:24:40;;;;;;;;;;;10.10;93.40;;;;;;5074680;28;20015;-61
2024/01/26 13:27:06;;;;;;;;;;;10.10;93.40;;;;;;5078825;28;19928;-61
2024/01/26 13:29:40;;;;;;;;;;;10.10;93.40;;;;;;5079752;28;19924;-62
2024/01/26 13:32:14;;;;;;;;;;;10.20;93.40;;;;;;5078906;28;19963;-61
2024/01/26 13:34:48;;;;;;;;;;;10.20;93.40;;;;;;5080385;28;19933;-61
2024/01/26 13:37:21;;;;;;;;;;;10.20;93.40;;;;;;5079086;28;20423;-61
2024/01/26 13:39:55;;;;;;;;;;;10.20;93.40;;;;;;5076957;28;19935;-61
2024/01/26 13:42:29;;;;;;;;;;;10.20;93.30;;;;;;5079672;28;19932;-61
2024/01/26 13:45:02;;;;;;;;;;;10.20;93.40;;;;;;5080875;28;19928;-63
2024/01/26 13:47:41;;;;;;;;;;;10.20;93.40;;;;;;5073207;28;19982;-61
2024/01/26 13:50:15;;;;;;;;;;;10.20;93.50;;;;;;5081371;28;19976;-61
2024/01/26 13:52:48;;;;;;;;;;;10.20;93.50;;;;;;5077317;28;19928;-60
2024/01/26 13:55:22;;;;;;;;;;;10.10;93.60;;;;;;5079164;28;19925;-61
2024/01/26 13:57:56;;;;;;;;;;;10.10;93.70;;;;;;5079760;28;19934;-62
2024/01/26 14:00:23;;;;;;;;;;;10.20;93.60;;;;;;5078020;28;19943;-61
2024/01/26 14:02:57;;;;;;;;;;;10.10;93.20;;;;;;5082356;28;20008;-62
2024/01/26 14:05:30;;;;;;;;;;;10.20;93.10;;;;;;5080519;28;20387;-61
2024/01/26 14:08:03;;;;;;;;;;;10.20;92.70;;;;;;5080809;28;20039;-61
2024/01/26 14:10:39;;;;;;;;;;;10.20;91.80;;;;;;5076884;28;20448;-72
2024/01/26 14:13:12;;;;;;;;;;;10.10;91.30;;;;;;5074831;28;19928;-71
2024/01/26 14:15:45;;;;;;;;;;;10.10;91.00;;;;;;5077086;28;20395;-71
2024/01/26 14:18:18;;;;;;;;;;;10.10;90.30;;;;;;5077702;28;19935;-69
2024/01/26 14:20:53;;;;;;;;;;;10.00;90.10;;;;;;5079761;28;19939;-70
2024/01/26 14:23:26;;;;;;;;;;;10.00;90.20;;;;;;5078504;28;19928;-71
2024/01/26 14:26:00;;;;;;;;;;;9.90;90.00;;;;;;5079040;28;19932;-70
2024/01/26 14:28:34;;;;;;;;;;;9.90;89.70;;;;;;5069590;28;19931;-72
2024/01/26 14:31:07;;;;;;;;;;;9.90;89.80;;;;;;5076254;28;19924;-70
2024/01/26 14:33:40;;;;;;;;;;;9.90;89.60;;;;;;5068231;28;19924;-71
2024/01/26 14:36:14;;;;;;;;;;;9.90;89.50;;;;;;5078555;28;19931;-71
2024/01/26 14:38:48;;;;;;;;;;;9.90;89.60;;;;;;5079619;28;19924;-71
2024/01/26 14:41:22;;;;;;;;;;;9.80;89.70;;;;;;5080817;28;20006;-71
2024/01/26 14:43:49;;;;;;;;;;;9.80;89.50;;;;;;5078386;28;19931;-71
2024/01/26 14:46:22;;;;;;;;;;;9.80;89.40;;;;;;5077859;28;20337;-72
2024/01/26 14:48:56;;;;;;;;;;;9.80;89.60;;;;;;5076497;28;20006;-71
2024/01/26 14:51:29;;;;;;;;;;;9.70;89.50;;;;;;5078778;28;19956;-71
2024/01/26 14:54:02;;;;;;;;;;;9.70;89.50;;;;;;5079820;28;19924;-70
2024/01/26 14:56:30;;;;;;;;;;;9.60;88.90;;;;;;5067775;28;19962;-70
2024/01/26 14:59:04;;;;;;;;;;;9.60;89.10;;;;;;5077744;28;19928;-70
2024/01/26 15:01:37;;;;;;;;;;;9.50;87.60;;;;;;5078548;28;19928;-72
2024/01/26 15:04:04;;;;;;;;;;;9.50;87.50;;;;;;5079153;28;19924;-71